sensor_id;sensor_type;location;lat;lon;timestamp;P1;durP1;ratioP1;P2;durP2;ratioP2
45863;SDS011;31579;52.354;16.974;2022-09-09T00:00:11;20.10;;;13.90;;
45863;SDS011;31579;52.354;16.974;2022-09-09T00:05:14;20.70;;;14.10;;
45863;SDS011;31579;52.354;16.974;2022-09-09T00:15:13;20.00;;;13.60;;
45863;SDS011;31579;52.354;16.974;2022-09-09T00:29:05;21.30;;;13.70;;
45863;SDS011;31579;52.354;16.974;2022-09-09T00:39:01;17.00;;;11.70;;
45863;SDS011;31579;52.354;16.974;2022-09-09T00:44:01;20.50;;;13.20;;
45863;SDS011;31579;52.354;16.974;2022-09-09T00:54:13;22.90;;;15.80;;
45863;SDS011;31579;52.354;16.974;2022-09-09T00:59:08;22.90;;;15.80;;
45863;SDS011;31579;52.354;16.974;2022-09-09T01:04:00;15.60;;;11.80;;
45863;SDS011;31579;52.354;16.974;2022-09-09T01:19:00;20.20;;;13.50;;
45863;SDS011;31579;52.354;16.974;2022-09-09T01:29:00;18.60;;;13.40;;
45863;SDS011;31579;52.354;16.974;2022-09-09T01:34:00;19.60;;;12.40;;
45863;SDS011;31579;52.354;16.974;2022-09-09T01:39:00;19.60;;;12.40;;
45863;SDS011;31579;52.354;16.974;2022-09-09T01:44:00;21.20;;;14.80;;
45863;SDS011;31579;52.354;16.974;2022-09-09T01:49:00;21.20;;;14.80;;
45863;SDS011;31579;52.354;16.974;2022-09-09T01:54:00;17.20;;;11.60;;
45863;SDS011;31579;52.354;16.974;2022-09-09T02:15:58;13.10;;;9.80;;
45863;SDS011;31579;52.354;16.974;2022-09-09T02:20:56;13.10;;;9.80;;
45863;SDS011;31579;52.354;16.974;2022-09-09T02:25:57;19.40;;;13.90;;
45863;SDS011;31579;52.354;16.974;2022-09-09T02:30:56;19.40;;;13.90;;
45863;SDS011;31579;52.354;16.974;2022-09-09T02:35:56;13.50;;;10.40;;
45863;SDS011;31579;52.354;16.974;2022-09-09T02:40:56;13.50;;;10.40;;
45863;SDS011;31579;52.354;16.974;2022-09-09T02:51:02;18.70;;;12.10;;
45863;SDS011;31579;52.354;16.974;2022-09-09T02:55:58;15.90;;;12.60;;
45863;SDS011;31579;52.354;16.974;2022-09-09T03:00:56;15.90;;;12.60;;
45863;SDS011;31579;52.354;16.974;2022-09-09T03:05:56;12.80;;;8.10;;
45863;SDS011;31579;52.354;16.974;2022-09-09T03:10:57;12.80;;;8.10;;
45863;SDS011;31579;52.354;16.974;2022-09-09T03:15:56;9.00;;;6.40;;
45863;SDS011;31579;52.354;16.974;2022-09-09T03:20:56;9.00;;;6.40;;
45863;SDS011;31579;52.354;16.974;2022-09-09T03:25:56;15.90;;;7.40;;
45863;SDS011;31579;52.354;16.974;2022-09-09T03:35:26;16.50;;;12.00;;
45863;SDS011;31579;52.354;16.974;2022-09-09T03:40:24;16.50;;;12.00;;
45863;SDS011;31579;52.354;16.974;2022-09-09T03:45:24;15.90;;;11.50;;
45863;SDS011;31579;52.354;16.974;2022-09-09T03:50:24;15.90;;;11.50;;
45863;SDS011;31579;52.354;16.974;2022-09-09T03:55:24;12.80;;;8.40;;
45863;SDS011;31579;52.354;16.974;2022-09-09T04:00:24;12.80;;;8.40;;
45863;SDS011;31579;52.354;16.974;2022-09-09T04:05:26;9.60;;;7.50;;
45863;SDS011;31579;52.354;16.974;2022-09-09T04:10:24;9.60;;;7.50;;
45863;SDS011;31579;52.354;16.974;2022-09-09T04:15:24;11.40;;;8.60;;
45863;SDS011;31579;52.354;16.974;2022-09-09T04:20:24;11.40;;;8.60;;
45863;SDS011;31579;52.354;16.974;2022-09-09T04:25:24;12.30;;;8.50;;
45863;SDS011;31579;52.354;16.974;2022-09-09T04:30:24;12.30;;;8.50;;
45863;SDS011;31579;52.354;16.974;2022-09-09T04:35:24;12.00;;;9.00;;
45863;SDS011;31579;52.354;16.974;2022-09-09T04:40:29;12.00;;;9.00;;
45863;SDS011;31579;52.354;16.974;2022-09-09T04:45:24;20.80;;;12.10;;
45863;SDS011;31579;52.354;16.974;2022-09-09T04:50:24;20.80;;;12.10;;
45863;SDS011;31579;52.354;16.974;2022-09-09T04:55:25;15.70;;;10.30;;
45863;SDS011;31579;52.354;16.974;2022-09-09T05:00:24;15.70;;;10.30;;
45863;SDS011;31579;52.354;16.974;2022-09-09T05:05:24;20.50;;;15.00;;
45863;SDS011;31579;52.354;16.974;2022-09-09T05:10:24;20.50;;;15.00;;
45863;SDS011;31579;52.354;16.974;2022-09-09T05:15:24;20.90;;;15.10;;
45863;SDS011;31579;52.354;16.974;2022-09-09T05:20:24;20.90;;;15.10;;
45863;SDS011;31579;52.354;16.974;2022-09-09T05:25:24;18.00;;;12.10;;
45863;SDS011;31579;52.354;16.974;2022-09-09T05:30:24;18.00;;;12.10;;
45863;SDS011;31579;52.354;16.974;2022-09-09T05:35:24;18.80;;;12.80;;
45863;SDS011;31579;52.354;16.974;2022-09-09T05:40:24;18.80;;;12.80;;
45863;SDS011;31579;52.354;16.974;2022-09-09T05:45:24;14.00;;;9.10;;
45863;SDS011;31579;52.354;16.974;2022-09-09T05:51:40;14.00;;;9.10;;
45863;SDS011;31579;52.354;16.974;2022-09-09T05:56:40;14.20;;;9.70;;
45863;SDS011;31579;52.354;16.974;2022-09-09T06:01:40;14.20;;;9.70;;
45863;SDS011;31579;52.354;16.974;2022-09-09T06:06:40;12.50;;;9.00;;
45863;SDS011;31579;52.354;16.974;2022-09-09T06:11:40;12.50;;;9.00;;
45863;SDS011;31579;52.354;16.974;2022-09-09T06:16:41;11.90;;;8.60;;
45863;SDS011;31579;52.354;16.974;2022-09-09T06:21:40;11.90;;;8.60;;
45863;SDS011;31579;52.354;16.974;2022-09-09T06:23:11;11.70;;;8.90;;
45863;SDS011;31579;52.354;16.974;2022-09-09T06:28:09;11.70;;;8.90;;
45863;SDS011;31579;52.354;16.974;2022-09-09T06:33:09;12.10;;;9.50;;
45863;SDS011;31579;52.354;16.974;2022-09-09T06:38:09;12.10;;;9.50;;
45863;SDS011;31579;52.354;16.974;2022-09-09T06:43:09;15.90;;;12.90;;
45863;SDS011;31579;52.354;16.974;2022-09-09T06:48:09;15.90;;;12.90;;
45863;SDS011;31579;52.354;16.974;2022-09-09T06:53:09;11.60;;;9.60;;
45863;SDS011;31579;52.354;16.974;2022-09-09T06:58:09;11.60;;;9.60;;
45863;SDS011;31579;52.354;16.974;2022-09-09T07:03:10;14.00;;;11.30;;
45863;SDS011;31579;52.354;16.974;2022-09-09T07:08:10;14.00;;;11.30;;
45863;SDS011;31579;52.354;16.974;2022-09-09T07:13:09;13.00;;;10.30;;
45863;SDS011;31579;52.354;16.974;2022-09-09T07:18:09;13.00;;;10.30;;
45863;SDS011;31579;52.354;16.974;2022-09-09T07:23:09;12.60;;;10.60;;
45863;SDS011;31579;52.354;16.974;2022-09-09T07:28:09;12.60;;;10.60;;
45863;SDS011;31579;52.354;16.974;2022-09-09T07:31:28;12.60;;;10.60;;
45863;SDS011;31579;52.354;16.974;2022-09-09T07:36:28;12.60;;;10.60;;
45863;SDS011;31579;52.354;16.974;2022-09-09T07:46:25;9.40;;;8.10;;
45863;SDS011;31579;52.354;16.974;2022-09-09T07:51:26;9.40;;;8.10;;
45863;SDS011;31579;52.354;16.974;2022-09-09T07:56:25;9.10;;;7.60;;
45863;SDS011;31579;52.354;16.974;2022-09-09T08:01:29;9.10;;;7.60;;
45863;SDS011;31579;52.354;16.974;2022-09-09T08:06:25;10.40;;;8.10;;
45863;SDS011;31579;52.354;16.974;2022-09-09T08:11:25;10.40;;;8.10;;
45863;SDS011;31579;52.354;16.974;2022-09-09T08:16:27;7.40;;;6.70;;
45863;SDS011;31579;52.354;16.974;2022-09-09T08:21:29;7.40;;;6.70;;
45863;SDS011;31579;52.354;16.974;2022-09-09T08:26:27;9.20;;;8.30;;
45863;SDS011;31579;52.354;16.974;2022-09-09T08:31:27;9.20;;;8.30;;
45863;SDS011;31579;52.354;16.974;2022-09-09T08:36:25;7.80;;;6.80;;
45863;SDS011;31579;52.354;16.974;2022-09-09T08:46:26;7.30;;;6.50;;
45863;SDS011;31579;52.354;16.974;2022-09-09T08:51:25;7.30;;;6.50;;
45863;SDS011;31579;52.354;16.974;2022-09-09T08:56:24;8.60;;;7.80;;
45863;SDS011;31579;52.354;16.974;2022-09-09T09:00:09;8.60;;;7.80;;
45863;SDS011;31579;52.354;16.974;2022-09-09T09:20:10;10.60;;;9.50;;
45863;SDS011;31579;52.354;16.974;2022-09-09T09:25:16;7.30;;;6.60;;
45863;SDS011;31579;52.354;16.974;2022-09-09T09:30:13;7.30;;;6.60;;
45863;SDS011;31579;52.354;16.974;2022-09-09T09:35:10;8.20;;;7.20;;
45863;SDS011;31579;52.354;16.974;2022-09-09T09:45:14;7.20;;;6.40;;
45863;SDS011;31579;52.354;16.974;2022-09-09T09:50:16;7.20;;;6.40;;
45863;SDS011;31579;52.354;16.974;2022-09-09T09:55:11;10.40;;;9.40;;
45863;SDS011;31579;52.354;16.974;2022-09-09T10:05:12;8.30;;;7.50;;
45863;SDS011;31579;52.354;16.974;2022-09-09T10:10:08;8.30;;;7.50;;
45863;SDS011;31579;52.354;16.974;2022-09-09T10:30:04;7.30;;;6.70;;
45863;SDS011;31579;52.354;16.974;2022-09-09T10:36:13;7.60;;;6.80;;
45863;SDS011;31579;52.354;16.974;2022-09-09T10:51:11;7.90;;;7.20;;
45863;SDS011;31579;52.354;16.974;2022-09-09T10:56:07;8.50;;;7.70;;
45863;SDS011;31579;52.354;16.974;2022-09-09T11:01:12;8.50;;;7.70;;
45863;SDS011;31579;52.354;16.974;2022-09-09T11:16:14;6.20;;;5.00;;
45863;SDS011;31579;52.354;16.974;2022-09-09T11:21:03;6.20;;;5.00;;
45863;SDS011;31579;52.354;16.974;2022-09-09T11:26:03;6.00;;;5.00;;
45863;SDS011;31579;52.354;16.974;2022-09-09T11:36:11;6.50;;;4.90;;
45863;SDS011;31579;52.354;16.974;2022-09-09T11:41:04;6.50;;;4.90;;
45863;SDS011;31579;52.354;16.974;2022-09-09T11:46:03;6.40;;;3.30;;
45863;SDS011;31579;52.354;16.974;2022-09-09T11:55:11;6.60;;;3.90;;
45863;SDS011;31579;52.354;16.974;2022-09-09T12:00:27;6.60;;;3.90;;
45863;SDS011;31579;52.354;16.974;2022-09-09T12:05:11;3.70;;;3.00;;
45863;SDS011;31579;52.354;16.974;2022-09-09T12:20:15;3.50;;;2.60;;
45863;SDS011;31579;52.354;16.974;2022-09-09T12:30:11;3.70;;;2.70;;
45863;SDS011;31579;52.354;16.974;2022-09-09T12:35:13;4.40;;;2.70;;
45863;SDS011;31579;52.354;16.974;2022-09-09T13:00:14;4.40;;;2.60;;
45863;SDS011;31579;52.354;16.974;2022-09-09T13:05:13;4.30;;;2.50;;
45863;SDS011;31579;52.354;16.974;2022-09-09T13:10:11;4.30;;;2.50;;
45863;SDS011;31579;52.354;16.974;2022-09-09T13:15:12;3.90;;;2.70;;
45863;SDS011;31579;52.354;16.974;2022-09-09T13:35:22;4.90;;;2.50;;
45863;SDS011;31579;52.354;16.974;2022-09-09T13:50:17;4.10;;;2.50;;
45863;SDS011;31579;52.354;16.974;2022-09-09T13:55:09;3.70;;;2.30;;
45863;SDS011;31579;52.354;16.974;2022-09-09T14:00:10;3.70;;;2.30;;
45863;SDS011;31579;52.354;16.974;2022-09-09T14:05:09;5.10;;;2.30;;
45863;SDS011;31579;52.354;16.974;2022-09-09T14:10:13;5.10;;;2.30;;
45863;SDS011;31579;52.354;16.974;2022-09-09T14:15:10;5.40;;;2.40;;
45863;SDS011;31579;52.354;16.974;2022-09-09T14:20:09;5.40;;;2.40;;
45863;SDS011;31579;52.354;16.974;2022-09-09T14:22:03;5.40;;;2.40;;
45863;SDS011;31579;52.354;16.974;2022-09-09T14:27:02;5.40;;;2.40;;
45863;SDS011;31579;52.354;16.974;2022-09-09T14:32:02;5.40;;;2.40;;
45863;SDS011;31579;52.354;16.974;2022-09-09T14:37:02;3.90;;;2.50;;
45863;SDS011;31579;52.354;16.974;2022-09-09T14:42:02;3.90;;;2.50;;
45863;SDS011;31579;52.354;16.974;2022-09-09T14:47:02;4.10;;;2.50;;
45863;SDS011;31579;52.354;16.974;2022-09-09T14:52:04;4.10;;;2.50;;
45863;SDS011;31579;52.354;16.974;2022-09-09T14:57:02;3.40;;;2.50;;
45863;SDS011;31579;52.354;16.974;2022-09-09T15:02:02;3.40;;;2.50;;
45863;SDS011;31579;52.354;16.974;2022-09-09T15:07:02;4.40;;;2.70;;
45863;SDS011;31579;52.354;16.974;2022-09-09T15:12:02;4.40;;;2.70;;
45863;SDS011;31579;52.354;16.974;2022-09-09T15:17:02;4.30;;;2.60;;
45863;SDS011;31579;52.354;16.974;2022-09-09T15:22:02;4.30;;;2.60;;
45863;SDS011;31579;52.354;16.974;2022-09-09T15:27:02;4.60;;;2.90;;
45863;SDS011;31579;52.354;16.974;2022-09-09T15:32:02;4.60;;;2.90;;
45863;SDS011;31579;52.354;16.974;2022-09-09T15:37:02;5.60;;;2.50;;
45863;SDS011;31579;52.354;16.974;2022-09-09T15:42:02;5.60;;;2.50;;
45863;SDS011;31579;52.354;16.974;2022-09-09T15:47:02;5.10;;;2.20;;
45863;SDS011;31579;52.354;16.974;2022-09-09T15:52:02;5.10;;;2.20;;
45863;SDS011;31579;52.354;16.974;2022-09-09T15:57:07;6.20;;;2.70;;
45863;SDS011;31579;52.354;16.974;2022-09-09T16:02:02;6.20;;;2.70;;
45863;SDS011;31579;52.354;16.974;2022-09-09T16:07:02;5.40;;;2.40;;
45863;SDS011;31579;52.354;16.974;2022-09-09T16:12:02;5.40;;;2.40;;
45863;SDS011;31579;52.354;16.974;2022-09-09T16:17:03;5.00;;;2.80;;
45863;SDS011;31579;52.354;16.974;2022-09-09T16:22:02;5.00;;;2.80;;
45863;SDS011;31579;52.354;16.974;2022-09-09T16:27:02;4.90;;;2.20;;
45863;SDS011;31579;52.354;16.974;2022-09-09T16:32:02;4.90;;;2.20;;
45863;SDS011;31579;52.354;16.974;2022-09-09T16:37:02;5.10;;;2.70;;
45863;SDS011;31579;52.354;16.974;2022-09-09T16:42:02;5.10;;;2.70;;
45863;SDS011;31579;52.354;16.974;2022-09-09T16:45:04;4.40;;;2.90;;
45863;SDS011;31579;52.354;16.974;2022-09-09T16:50:02;4.40;;;2.90;;
45863;SDS011;31579;52.354;16.974;2022-09-09T16:55:02;6.30;;;3.40;;
45863;SDS011;31579;52.354;16.974;2022-09-09T17:00:02;6.30;;;3.40;;
45863;SDS011;31579;52.354;16.974;2022-09-09T17:05:02;5.20;;;3.50;;
45863;SDS011;31579;52.354;16.974;2022-09-09T17:10:02;5.20;;;3.50;;
45863;SDS011;31579;52.354;16.974;2022-09-09T17:15:14;4.50;;;3.40;;
45863;SDS011;31579;52.354;16.974;2022-09-09T17:20:12;4.50;;;3.40;;
45863;SDS011;31579;52.354;16.974;2022-09-09T17:25:12;5.10;;;3.30;;
45863;SDS011;31579;52.354;16.974;2022-09-09T17:30:16;5.10;;;3.30;;
45863;SDS011;31579;52.354;16.974;2022-09-09T17:35:12;6.60;;;4.60;;
45863;SDS011;31579;52.354;16.974;2022-09-09T17:40:12;6.60;;;4.60;;
45863;SDS011;31579;52.354;16.974;2022-09-09T17:44:07;8.20;;;5.30;;
45863;SDS011;31579;52.354;16.974;2022-09-09T17:49:15;8.20;;;5.30;;
45863;SDS011;31579;52.354;16.974;2022-09-09T17:54:06;6.80;;;4.30;;
45863;SDS011;31579;52.354;16.974;2022-09-09T17:59:06;6.80;;;4.30;;
45863;SDS011;31579;52.354;16.974;2022-09-09T18:04:06;5.50;;;3.90;;
45863;SDS011;31579;52.354;16.974;2022-09-09T18:08:53;5.50;;;3.90;;
45863;SDS011;31579;52.354;16.974;2022-09-09T18:13:53;7.50;;;6.80;;
45863;SDS011;31579;52.354;16.974;2022-09-09T18:18:50;7.50;;;6.80;;
45863;SDS011;31579;52.354;16.974;2022-09-09T18:23:50;6.70;;;5.10;;
45863;SDS011;31579;52.354;16.974;2022-09-09T18:28:52;6.70;;;5.10;;
45863;SDS011;31579;52.354;16.974;2022-09-09T18:33:51;8.60;;;7.20;;
45863;SDS011;31579;52.354;16.974;2022-09-09T18:38:53;8.60;;;7.20;;
45863;SDS011;31579;52.354;16.974;2022-09-09T18:43:51;9.40;;;8.50;;
45863;SDS011;31579;52.354;16.974;2022-09-09T18:48:50;9.40;;;8.50;;
45863;SDS011;31579;52.354;16.974;2022-09-09T19:03:08;9.50;;;7.90;;
45863;SDS011;31579;52.354;16.974;2022-09-09T19:08:08;9.50;;;7.90;;
45863;SDS011;31579;52.354;16.974;2022-09-09T19:13:08;8.60;;;6.90;;
45863;SDS011;31579;52.354;16.974;2022-09-09T19:18:08;8.60;;;6.90;;
45863;SDS011;31579;52.354;16.974;2022-09-09T19:23:08;9.30;;;6.90;;
45863;SDS011;31579;52.354;16.974;2022-09-09T19:28:09;9.30;;;6.90;;
45863;SDS011;31579;52.354;16.974;2022-09-09T19:33:08;10.60;;;8.00;;
45863;SDS011;31579;52.354;16.974;2022-09-09T19:38:08;10.60;;;8.00;;
45863;SDS011;31579;52.354;16.974;2022-09-09T19:43:08;10.10;;;6.30;;
45863;SDS011;31579;52.354;16.974;2022-09-09T19:48:08;10.10;;;6.30;;
45863;SDS011;31579;52.354;16.974;2022-09-09T19:53:08;9.90;;;7.00;;
45863;SDS011;31579;52.354;16.974;2022-09-09T19:58:08;9.90;;;7.00;;
45863;SDS011;31579;52.354;16.974;2022-09-09T20:03:08;11.40;;;8.10;;
45863;SDS011;31579;52.354;16.974;2022-09-09T20:03:13;11.40;;;8.10;;
45863;SDS011;31579;52.354;16.974;2022-09-09T20:08:12;11.40;;;8.10;;
45863;SDS011;31579;52.354;16.974;2022-09-09T20:10:58;11.40;;;8.10;;
45863;SDS011;31579;52.354;16.974;2022-09-09T20:16:05;10.80;;;7.60;;
45863;SDS011;31579;52.354;16.974;2022-09-09T20:25:59;10.90;;;8.10;;
45863;SDS011;31579;52.354;16.974;2022-09-09T20:31:01;10.90;;;8.10;;
45863;SDS011;31579;52.354;16.974;2022-09-09T20:35:56;8.80;;;6.30;;
45863;SDS011;31579;52.354;16.974;2022-09-09T20:41:01;8.80;;;6.30;;
45863;SDS011;31579;52.354;16.974;2022-09-09T20:43:09;8.40;;;5.60;;
45863;SDS011;31579;52.354;16.974;2022-09-09T20:48:05;8.40;;;5.60;;
45863;SDS011;31579;52.354;16.974;2022-09-09T20:53:05;14.70;;;8.90;;
45863;SDS011;31579;52.354;16.974;2022-09-09T20:58:05;14.70;;;8.90;;
45863;SDS011;31579;52.354;16.974;2022-09-09T21:03:06;13.60;;;8.80;;
45863;SDS011;31579;52.354;16.974;2022-09-09T21:08:05;13.60;;;8.80;;
45863;SDS011;31579;52.354;16.974;2022-09-09T21:13:05;14.00;;;9.30;;
45863;SDS011;31579;52.354;16.974;2022-09-09T21:18:05;14.00;;;9.30;;
45863;SDS011;31579;52.354;16.974;2022-09-09T21:23:05;13.60;;;9.80;;
45863;SDS011;31579;52.354;16.974;2022-09-09T21:28:09;13.60;;;9.80;;
45863;SDS011;31579;52.354;16.974;2022-09-09T21:33:06;11.20;;;8.70;;
45863;SDS011;31579;52.354;16.974;2022-09-09T21:38:06;11.20;;;8.70;;
45863;SDS011;31579;52.354;16.974;2022-09-09T21:43:06;18.40;;;10.10;;
45863;SDS011;31579;52.354;16.974;2022-09-09T21:48:06;18.40;;;10.10;;
45863;SDS011;31579;52.354;16.974;2022-09-09T21:53:05;20.30;;;12.10;;
45863;SDS011;31579;52.354;16.974;2022-09-09T21:58:06;20.30;;;12.10;;
45863;SDS011;31579;52.354;16.974;2022-09-09T22:03:05;14.90;;;10.60;;
45863;SDS011;31579;52.354;16.974;2022-09-09T22:08:05;14.90;;;10.60;;
45863;SDS011;31579;52.354;16.974;2022-09-09T22:13:05;19.90;;;13.60;;
45863;SDS011;31579;52.354;16.974;2022-09-09T22:18:05;19.90;;;13.60;;
45863;SDS011;31579;52.354;16.974;2022-09-09T22:23:05;14.10;;;10.40;;
45863;SDS011;31579;52.354;16.974;2022-09-09T22:28:06;14.10;;;10.40;;
45863;SDS011;31579;52.354;16.974;2022-09-09T22:33:09;11.20;;;8.90;;
45863;SDS011;31579;52.354;16.974;2022-09-09T22:38:05;11.20;;;8.90;;
45863;SDS011;31579;52.354;16.974;2022-09-09T22:43:06;10.10;;;7.80;;
45863;SDS011;31579;52.354;16.974;2022-09-09T22:48:07;10.10;;;7.80;;
45863;SDS011;31579;52.354;16.974;2022-09-09T22:53:05;10.60;;;7.90;;
45863;SDS011;31579;52.354;16.974;2022-09-09T22:58:05;10.60;;;7.90;;
45863;SDS011;31579;52.354;16.974;2022-09-09T23:03:05;10.60;;;7.90;;
45863;SDS011;31579;52.354;16.974;2022-09-09T23:08:05;11.90;;;7.00;;
45863;SDS011;31579;52.354;16.974;2022-09-09T23:13:05;10.80;;;6.00;;
45863;SDS011;31579;52.354;16.974;2022-09-09T23:13:50;10.80;;;6.00;;
45863;SDS011;31579;52.354;16.974;2022-09-09T23:18:47;10.80;;;6.00;;
45863;SDS011;31579;52.354;16.974;2022-09-09T23:28:57;8.20;;;5.40;;
45863;SDS011;31579;52.354;16.974;2022-09-09T23:33:57;9.60;;;5.50;;
45863;SDS011;31579;52.354;16.974;2022-09-09T23:38:57;9.60;;;5.50;;
45863;SDS011;31579;52.354;16.974;2022-09-09T23:43:56;6.60;;;5.20;;
45863;SDS011;31579;52.354;16.974;2022-09-09T23:45:31;6.60;;;5.20;;
45863;SDS011;31579;52.354;16.974;2022-09-09T23:50:29;6.60;;;5.20;;
45863;SDS011;31579;52.354;16.974;2022-09-09T23:55:29;7.70;;;5.20;;
